createdAt,value
2023-02-02T00:00:36.467Z,96551.16
2023-02-02T00:01:41.037Z,96547.78
2023-02-02T00:02:43.036Z,96543.47
2023-02-02T00:03:49.103Z,96552.84
2023-02-02T00:04:51.168Z,96550.28
2023-02-02T00:05:57.835Z,96555.44
2023-02-02T00:07:00.306Z,96540.13
2023-02-02T00:08:04.847Z,96556.38
2023-02-02T00:09:06.841Z,96554.72
2023-02-02T00:10:12.800Z,96548.75
2023-02-02T00:11:18.214Z,96553.03
2023-02-02T00:12:20.142Z,96550.47
2023-02-02T00:13:24.656Z,96553.97
2023-02-02T00:14:26.879Z,96550.53
2023-02-02T00:15:34.009Z,96556.53
2023-02-02T00:16:41.753Z,96541.13
2023-02-02T00:17:46.271Z,96547.13
2023-02-02T00:18:49.026Z,96543.72
2023-02-02T00:19:53.582Z,96549.75
2023-02-02T00:20:55.568Z,96546.34
2023-02-02T00:22:00.616Z,96547.22
2023-02-02T00:23:02.994Z,96538.69
2023-02-02T00:24:08.101Z,96549.78
2023-02-02T00:25:10.640Z,96554.94
2023-02-02T00:26:15.157Z,96550.66
2023-02-02T00:27:17.214Z,96549.81
2023-02-02T00:28:21.755Z,96552.41
2023-02-02T00:29:25.859Z,96549.88
2023-02-02T00:30:33.092Z,96555.78
2023-02-02T00:31:35.348Z,96553.28
2023-02-02T00:32:40.859Z,96549.94
2023-02-02T00:33:45.477Z,96557.59
2023-02-02T00:34:50.055Z,96563.56
2023-02-02T00:35:52.353Z,96552.47
2023-02-02T00:36:56.927Z,96557.66
2023-02-02T00:37:58.906Z,96552.50
2023-02-02T00:39:03.485Z,96552.53
2023-02-02T00:40:07.442Z,96556.81
2023-02-02T00:41:12.066Z,96539.72
2023-02-02T00:42:14.009Z,96546.59
2023-02-02T00:43:18.655Z,96555.13
2023-02-02T00:44:35.677Z,96544.88
2023-02-02T00:45:40.329Z,96553.50
2023-02-02T00:46:43.152Z,96555.13
2023-02-02T00:47:49.317Z,96555.16
2023-02-02T00:48:52.138Z,96574.78
2023-02-02T00:49:56.713Z,96552.56
2023-02-02T00:50:58.738Z,96552.59
2023-02-02T00:52:03.267Z,96546.59
2023-02-02T00:53:05.593Z,96551.72
2023-02-02T00:54:10.173Z,96558.53
2023-02-02T00:55:13.325Z,96547.44
2023-02-02T00:56:17.862Z,96540.66
2023-02-02T00:57:19.844Z,96549.19
2023-02-02T00:58:24.375Z,96540.69
2023-02-02T00:59:26.366Z,96544.09
2023-02-02T01:00:30.948Z,96542.41
2023-02-02T01:01:35.542Z,96545.78
2023-02-02T01:02:40.135Z,96547.50
2023-02-02T01:03:42.118Z,96548.41
2023-02-02T01:04:46.660Z,96547.53
2023-02-02T01:05:50.284Z,96550.94
2023-02-02T01:06:54.818Z,96548.34
2023-02-02T01:07:56.795Z,96561.97
2023-02-02T01:09:01.415Z,96557.72
2023-02-02T01:10:03.859Z,96541.53
2023-02-02T01:11:08.634Z,96544.94
2023-02-02T01:12:10.644Z,96545.81
2023-02-02T01:13:15.172Z,96546.66
2023-02-02T01:14:17.184Z,96553.50
2023-02-02T01:15:22.213Z,96553.50
2023-02-02T01:16:24.991Z,96550.94
2023-02-02T01:17:32.263Z,96547.53
2023-02-02T01:18:34.318Z,96542.41
2023-02-02T01:19:38.925Z,96553.50
2023-02-02T01:20:40.889Z,96549.25
2023-02-02T01:21:45.741Z,96552.59
2023-02-02T01:22:47.978Z,96551.81
2023-02-02T01:23:52.745Z,96545.84
2023-02-02T01:24:54.726Z,96539.94
2023-02-02T01:26:00.432Z,96543.34
2023-02-02T01:27:02.392Z,96546.78
2023-02-02T01:28:07.285Z,96562.97
2023-02-02T01:29:09.213Z,96554.41
2023-02-02T01:30:15.242Z,96552.78
2023-02-02T01:31:19.668Z,96560.47
2023-02-02T01:32:24.235Z,96557.03
2023-02-02T01:33:28.803Z,96548.47
2023-02-02T01:34:33.378Z,96557.84
2023-02-02T01:35:35.353Z,96551.94
2023-02-02T01:36:39.931Z,96558.75
2023-02-02T01:37:41.989Z,96560.47
2023-02-02T01:38:46.761Z,96551.16
2023-02-02T01:39:48.834Z,96564.84
2023-02-02T01:40:54.932Z,96553.78
2023-02-02T01:41:59.512Z,96551.22
2023-02-02T01:43:01.440Z,96548.75
2023-02-02T01:44:08.159Z,96557.22
2023-02-02T01:45:29.206Z,96564.09
2023-02-02T01:46:35.447Z,96554.81
2023-02-02T01:47:40.214Z,96547.06
2023-02-02T01:48:55.490Z,96550.50
2023-02-02T01:49:57.825Z,96548.88
2023-02-02T01:51:06.319Z,96554.81
2023-02-02T01:52:10.292Z,96560.75
2023-02-02T01:53:14.894Z,96549.69
2023-02-02T01:54:22.100Z,96557.41
2023-02-02T01:55:29.307Z,96559.13
2023-02-02T01:56:36.521Z,96559.97
2023-02-02T01:57:44.881Z,96556.53
2023-02-02T01:58:47.357Z,96560.81
2023-02-02T01:59:54.721Z,96550.56
2023-02-02T02:00:56.895Z,96565.00
2023-02-02T02:02:02.301Z,96566.72
2023-02-02T02:03:08.867Z,96564.13
2023-02-02T02:04:16.393Z,96560.75
2023-02-02T02:05:24.781Z,96559.91
2023-02-02T02:06:30.972Z,96555.66
2023-02-02T02:07:33.224Z,96559.09
2023-02-02T02:08:42.744Z,96549.75
2023-02-02T02:09:44.720Z,96553.16
2023-02-02T02:10:49.500Z,96553.94
2023-02-02T02:11:53.666Z,96546.25
2023-02-02T02:12:58.361Z,96552.25
2023-02-02T02:14:18.154Z,96548.03
2023-02-02T02:15:36.513Z,96548.91
2023-02-02T02:16:49.599Z,96549.75
2023-02-02T02:18:07.171Z,96554.84
2023-02-02T02:19:25.170Z,96550.63
2023-02-02T02:21:07.801Z,96547.16
2023-02-02T02:22:28.903Z,96549.66
2023-02-02T02:24:24.122Z,96543.69
2023-02-02T02:26:11.228Z,96546.19
2023-02-02T02:27:51.357Z,96551.34
2023-02-02T02:29:17.813Z,96532.56
2023-02-02T02:30:38.729Z,96540.22
2023-02-02T02:32:14.329Z,96553.00
2023-02-02T02:33:23.791Z,96547.00
2023-02-02T02:34:36.980Z,96537.59
2023-02-02T02:35:46.378Z,96537.50
2023-02-02T02:36:54.404Z,96532.38
2023-02-02T02:38:05.212Z,96541.72
2023-02-02T02:39:16.155Z,96539.16
2023-02-02T02:40:25.575Z,96540.03
2023-02-02T02:41:36.564Z,96533.19
2023-02-02T02:42:42.187Z,96531.44
2023-02-02T02:43:51.027Z,96531.47
2023-02-02T02:44:55.310Z,96533.97
2023-02-02T02:46:00.644Z,96523.75
2023-02-02T02:47:03.064Z,96529.75
2023-02-02T02:48:13.003Z,96531.41
2023-02-02T02:49:15.052Z,96528.81
2023-02-02T02:50:19.970Z,96530.53
2023-02-02T02:51:41.928Z,96539.00
2023-02-02T02:52:46.745Z,96541.63
2023-02-02T02:53:48.996Z,96547.53
2023-02-02T02:54:56.780Z,96536.41
2023-02-02T02:56:09.853Z,96538.97
2023-02-02T02:57:42.149Z,96537.25
2023-02-02T02:58:47.961Z,96533.75
2023-02-02T02:59:59.971Z,96540.59
2023-02-02T03:01:10.272Z,96541.44
2023-02-02T03:02:37.438Z,96543.97
2023-02-02T03:04:00.117Z,96545.69
2023-02-02T03:05:13.970Z,96539.69
2023-02-02T03:06:25.891Z,96544.75
2023-02-02T03:07:32.938Z,96546.44
2023-02-02T03:08:42.800Z,96537.97
2023-02-02T03:09:47.544Z,96533.63
2023-02-02T03:10:52.257Z,96534.56
2023-02-02T03:11:56.416Z,96536.28
2023-02-02T03:13:01.293Z,96534.59
2023-02-02T03:14:04.593Z,96537.13
2023-02-02T03:15:10.249Z,96538.00
2023-02-02T03:16:12.423Z,96541.44
2023-02-02T03:17:16.949Z,96539.72
2023-02-02T03:18:22.261Z,96549.16
2023-02-02T03:19:29.467Z,96539.81
2023-02-02T03:20:31.463Z,96542.41
2023-02-02T03:21:37.071Z,96540.78
2023-02-02T03:22:39.209Z,96546.69
2023-02-02T03:23:43.800Z,96541.56
2023-02-02T03:24:45.763Z,96539.91
2023-02-02T03:25:50.999Z,96540.72
2023-02-02T03:26:53.457Z,96536.41
2023-02-02T03:27:58.029Z,96544.97
2023-02-02T03:29:01.144Z,96536.38
2023-02-02T03:30:05.949Z,96541.44
2023-02-02T03:31:08.402Z,96537.19
2023-02-02T03:32:13.115Z,96547.34
2023-02-02T03:33:16.469Z,96549.88
2023-02-02T03:34:21.002Z,96545.69
2023-02-02T03:35:26.470Z,96541.41
2023-02-02T03:36:31.150Z,96547.34
2023-02-02T03:37:33.095Z,96547.31
2023-02-02T03:38:37.707Z,96550.75
2023-02-02T03:39:39.671Z,96555.84
2023-02-02T03:40:44.577Z,96562.69
2023-02-02T03:41:46.492Z,96554.13
2023-02-02T03:42:51.097Z,96558.41
2023-02-02T03:43:53.083Z,96552.44
2023-02-02T03:44:57.596Z,96566.03
2023-02-02T03:46:04.421Z,96559.19
2023-02-02T03:47:09.070Z,96555.00
2023-02-02T03:48:10.999Z,96558.31
2023-02-02T03:49:15.518Z,96547.22
2023-02-02T03:50:18.074Z,96541.16
2023-02-02T03:51:25.197Z,96545.50
2023-02-02T03:52:27.522Z,96549.78
2023-02-02T03:53:32.024Z,96541.25
2023-02-02T03:54:34.089Z,96541.25
2023-02-02T03:55:40.595Z,96560.03
2023-02-02T03:56:42.866Z,96553.16
2023-02-02T03:57:47.455Z,96562.53
2023-02-02T03:58:49.456Z,96556.50
2023-02-02T03:59:54.097Z,96555.59
2023-02-02T04:01:02.517Z,96554.72
2023-02-02T04:02:07.045Z,96552.16
2023-02-02T04:03:09.060Z,96553.88
2023-02-02T04:04:13.655Z,96557.28
2023-02-02T04:05:15.816Z,96558.06
2023-02-02T04:06:20.735Z,96559.72
2023-02-02T04:07:25.351Z,96554.59
2023-02-02T04:08:30.268Z,96559.66
2023-02-02T04:09:32.914Z,96569.91
2023-02-02T04:10:39.739Z,96568.13
2023-02-02T04:11:41.689Z,96568.22
2023-02-02T04:12:46.724Z,96569.06
2023-02-02T04:13:48.657Z,96573.19
2023-02-02T04:14:53.187Z,96562.03
2023-02-02T04:15:59.159Z,96566.31
2023-02-02T04:17:03.698Z,96556.94
2023-02-02T04:18:05.775Z,96562.91
2023-02-02T04:19:12.917Z,96567.16
2023-02-02T04:20:15.033Z,96571.34
2023-02-02T04:21:19.728Z,96556.00
2023-02-02T04:22:24.338Z,96568.78
2023-02-02T04:23:29.436Z,96572.16
2023-02-02T04:24:31.421Z,96566.94
2023-02-02T04:25:35.942Z,96575.47
2023-02-02T04:26:37.998Z,96566.88
2023-02-02T04:27:42.558Z,96569.38
2023-02-02T04:28:44.516Z,96574.50
2023-02-02T04:29:49.087Z,96577.03
2023-02-02T04:30:51.728Z,96567.63
2023-02-02T04:31:56.740Z,96576.16
2023-02-02T04:32:59.053Z,96570.16
2023-02-02T04:34:04.125Z,96600.88
2023-02-02T04:35:07.267Z,96566.72
2023-02-02T04:36:13.202Z,96577.81
2023-02-02T04:37:15.225Z,96580.31
2023-02-02T04:38:22.928Z,96579.50
2023-02-02T04:39:25.118Z,96591.44
2023-02-02T04:40:29.832Z,96590.59
2023-02-02T04:41:31.789Z,96596.56
2023-02-02T04:42:36.361Z,96592.25
2023-02-02T04:43:39.065Z,96591.44
2023-02-02T04:44:44.131Z,96595.72
2023-02-02T04:45:46.310Z,96595.66
2023-02-02T04:46:50.915Z,96600.84
2023-02-02T04:47:52.908Z,96595.69
2023-02-02T04:48:57.503Z,96605.91
2023-02-02T04:49:59.428Z,96594.81
2023-02-02T04:51:05.389Z,96588.81
2023-02-02T04:52:07.443Z,96598.16
2023-02-02T04:53:11.997Z,96595.59
2023-02-02T04:54:17.007Z,96609.25
2023-02-02T04:55:21.600Z,96608.38
2023-02-02T04:56:23.560Z,96600.69
2023-02-02T04:57:28.139Z,96603.25
2023-02-02T04:58:30.233Z,96602.34
2023-02-02T04:59:34.866Z,96625.38
2023-02-02T05:00:37.228Z,96615.13
2023-02-02T05:01:42.303Z,96602.28
2023-02-02T05:02:44.369Z,96598.84
2023-02-02T05:03:49.281Z,96624.53
2023-02-02T05:04:51.371Z,96621.97
2023-02-02T05:06:05.201Z,96621.09
2023-02-02T05:07:07.297Z,96617.69
2023-02-02T05:08:12.170Z,96614.22
2023-02-02T05:09:16.773Z,96619.38
2023-02-02T05:10:21.655Z,96629.63
2023-02-02T05:11:24.460Z,96618.47
2023-02-02T05:12:29.057Z,96615.09
2023-02-02T05:13:31.057Z,96623.66
2023-02-02T05:14:35.598Z,96618.50
2023-02-02T05:15:37.586Z,96624.53
2023-02-02T05:16:42.167Z,96621.09
2023-02-02T05:17:44.285Z,96618.53
2023-02-02T05:18:52.437Z,96607.41
2023-02-02T05:19:54.427Z,96621.94
2023-02-02T05:20:59.058Z,96619.31
2023-02-02T05:22:01.113Z,96621.03
2023-02-02T05:23:05.871Z,96623.50
2023-02-02T05:24:08.208Z,96624.44
2023-02-02T05:25:15.536Z,96628.69
2023-02-02T05:26:19.895Z,96627.00
2023-02-02T05:27:24.704Z,96625.34
2023-02-02T05:28:26.743Z,96631.31
2023-02-02T05:29:31.387Z,96616.78
2023-02-02T05:30:33.764Z,96618.47
2023-02-02T05:31:38.559Z,96621.09
2023-02-02T05:32:41.236Z,96611.66
2023-02-02T05:33:45.905Z,96632.13
2023-02-02T05:34:48.069Z,96625.31
2023-02-02T05:35:52.927Z,96619.25
2023-02-02T05:36:55.119Z,96619.19
2023-02-02T05:37:59.755Z,96635.44
2023-02-02T05:39:01.798Z,96622.56
2023-02-02T05:40:06.954Z,96632.81
2023-02-02T05:41:11.610Z,96638.78
2023-02-02T05:42:16.176Z,96632.75
2023-02-02T05:43:18.796Z,96637.00
2023-02-02T05:44:24.625Z,96647.31
2023-02-02T05:45:26.874Z,96645.59
2023-02-02T05:46:32.213Z,96650.72
2023-02-02T05:47:35.829Z,96649.03
2023-02-02T05:48:40.478Z,96642.19
2023-02-02T05:49:42.397Z,96649.00
2023-02-02T05:50:51.679Z,96638.78
2023-02-02T05:51:59.679Z,96658.44
2023-02-02T05:53:01.997Z,96652.44
2023-02-02T05:54:06.857Z,96647.31
2023-02-02T05:55:10.770Z,96643.00
2023-02-02T05:56:18.436Z,96658.34
2023-02-02T05:57:20.808Z,96640.41
2023-02-02T05:58:25.967Z,96652.38
2023-02-02T05:59:29.327Z,96641.28
2023-02-02T06:00:33.928Z,96639.53
2023-02-02T06:01:36.022Z,96645.47
2023-02-02T06:02:40.580Z,96647.25
2023-02-02T06:03:42.763Z,96628.41
2023-02-02T06:04:47.428Z,96640.41
2023-02-02T06:05:49.533Z,96648.09
2023-02-02T06:06:54.085Z,96657.50
2023-02-02T06:07:56.040Z,96677.19
2023-02-02T06:09:00.599Z,96652.34
2023-02-02T06:10:03.062Z,96647.25
2023-02-02T06:11:12.314Z,96653.22
2023-02-02T06:12:18.913Z,96663.53
2023-02-02T06:13:23.751Z,96651.53
2023-02-02T06:14:25.929Z,96648.94
2023-02-02T06:15:31.654Z,96654.91
2023-02-02T06:16:33.869Z,96660.91
2023-02-02T06:17:38.524Z,96658.34
2023-02-02T06:18:40.535Z,96657.53
2023-02-02T06:19:45.208Z,96672.97
2023-02-02T06:20:47.805Z,96666.09
2023-02-02T06:21:52.434Z,96661.84
2023-02-02T06:22:54.441Z,96662.75
2023-02-02T06:23:58.972Z,96661.09
2023-02-02T06:25:01.240Z,96655.97
2023-02-02T06:26:08.401Z,96668.69
2023-02-02T06:27:10.394Z,96659.28
2023-02-02T06:28:17.564Z,96669.56
2023-02-02T06:29:19.567Z,96667.91
2023-02-02T06:30:24.474Z,96665.31
2023-02-02T06:31:26.613Z,96676.44
2023-02-02T06:32:32.347Z,96673.00
2023-02-02T06:33:34.583Z,96670.50
2023-02-02T06:34:39.153Z,96676.47
2023-02-02T06:35:41.174Z,96674.81
2023-02-02T06:36:45.707Z,96671.41
2023-02-02T06:37:47.749Z,96673.97
2023-02-02T06:38:53.195Z,96677.38
2023-02-02T06:39:55.154Z,96674.78
2023-02-02T06:41:02.420Z,96672.22
2023-02-02T06:42:19.220Z,96658.56
2023-02-02T06:43:27.837Z,96679.94
2023-02-02T06:44:29.922Z,96676.53
2023-02-02T06:45:39.290Z,96689.31
2023-02-02T06:46:41.322Z,96692.75
2023-02-02T06:47:45.962Z,96676.53
2023-02-02T06:48:48.021Z,96670.50
2023-02-02T06:49:52.664Z,96680.00
2023-02-02T06:50:54.681Z,96670.59
2023-02-02T06:51:59.218Z,96683.44
2023-02-02T06:53:01.160Z,96683.50
2023-02-02T06:54:06.047Z,96681.75
2023-02-02T06:55:08.593Z,96681.81
2023-02-02T06:56:15.803Z,96686.00
2023-02-02T06:57:17.736Z,96677.50
2023-02-02T06:58:22.283Z,96692.91
2023-02-02T06:59:29.440Z,96680.09
2023-02-02T07:00:31.796Z,96680.97
2023-02-02T07:01:36.339Z,96687.00
2023-02-02T07:02:38.542Z,96681.88
2023-02-02T07:03:43.811Z,96688.72
2023-02-02T07:04:45.730Z,96691.31
2023-02-02T07:05:50.784Z,96689.50
2023-02-02T07:06:55.294Z,96668.19
2023-02-02T07:07:57.233Z,96681.06
2023-02-02T07:09:03.429Z,96672.50
2023-02-02T07:10:06.178Z,96678.56
2023-02-02T07:11:15.513Z,96690.50
2023-02-02T07:12:20.824Z,96682.84
2023-02-02T07:13:23.496Z,96692.22
2023-02-02T07:14:30.871Z,96697.34
2023-02-02T07:15:33.107Z,96690.59
2023-02-02T07:16:37.667Z,96681.22
2023-02-02T07:17:39.653Z,96687.22
2023-02-02T07:18:47.741Z,96686.34
2023-02-02T07:19:49.715Z,96681.22
2023-02-02T07:20:54.246Z,96690.63
2023-02-02T07:21:56.247Z,96698.22
2023-02-02T07:23:02.685Z,96696.56
2023-02-02T07:24:06.569Z,96702.53
2023-02-02T07:25:11.677Z,96693.94
2023-02-02T07:26:14.600Z,96698.19
2023-02-02T07:27:19.214Z,96702.44
2023-02-02T07:28:21.176Z,96696.53
2023-02-02T07:29:25.719Z,96688.91
2023-02-02T07:30:30.326Z,96694.03
2023-02-02T07:31:36.812Z,96700.91
2023-02-02T07:32:39.007Z,96699.22
2023-02-02T07:33:44.271Z,96698.44
2023-02-02T07:34:49.008Z,96696.75
2023-02-02T07:35:53.631Z,96697.63
2023-02-02T07:36:58.203Z,96691.78
2023-02-02T07:38:00.263Z,96697.09
2023-02-02T07:39:05.453Z,96682.66
2023-02-02T07:40:09.480Z,96685.25
2023-02-02T07:41:14.280Z,96706.50
2023-02-02T07:42:18.924Z,96697.09
2023-02-02T07:43:20.888Z,96693.66
2023-02-02T07:44:25.453Z,96703.03
2023-02-02T07:45:33.414Z,96691.88
2023-02-02T07:46:38.557Z,96696.03
2023-02-02T07:47:40.884Z,96696.88
2023-02-02T07:48:45.557Z,96688.25
2023-02-02T07:49:50.165Z,96683.94
2023-02-02T07:50:52.446Z,96693.25
2023-02-02T07:51:57.121Z,96696.69
2023-02-02T07:52:59.501Z,96686.44
2023-02-02T07:54:04.462Z,96684.66
2023-02-02T07:55:25.981Z,96691.53
2023-02-02T07:56:30.726Z,96689.00
2023-02-02T07:57:35.304Z,96692.34
2023-02-02T07:58:37.574Z,96683.78
2023-02-02T07:59:42.411Z,96684.63
2023-02-02T08:00:46.971Z,96677.88
2023-02-02T08:01:51.767Z,96687.28
2023-02-02T08:02:53.894Z,96690.78
2023-02-02T08:04:00.563Z,96690.88
2023-02-02T08:05:02.549Z,96695.28
2023-02-02T08:06:14.341Z,96685.75
2023-02-02T08:07:21.503Z,96691.81
2023-02-02T08:08:26.120Z,96689.22
2023-02-02T08:09:28.101Z,96683.19
2023-02-02T08:10:32.617Z,96701.22
2023-02-02T08:11:38.905Z,96695.28
2023-02-02T08:12:43.477Z,96694.50
2023-02-02T08:13:51.479Z,96686.81
2023-02-02T08:14:56.015Z,96687.69
2023-02-02T08:16:03.218Z,96692.91
2023-02-02T08:17:07.858Z,96700.50
2023-02-02T08:18:09.850Z,96698.78
2023-02-02T08:19:14.776Z,96709.88
2023-02-02T08:20:16.977Z,96696.22
2023-02-02T08:21:21.776Z,96701.28
2023-02-02T08:22:26.460Z,96698.69
2023-02-02T08:23:31.569Z,96690.16
2023-02-02T08:24:33.630Z,96704.63
2023-02-02T08:25:38.228Z,96713.19
2023-02-02T08:26:43.047Z,96712.31
2023-02-02T08:27:47.628Z,96713.09
2023-02-02T08:28:54.231Z,96719.91
2023-02-02T08:29:58.820Z,96711.25
2023-02-02T08:31:11.015Z,96716.41
2023-02-02T08:32:15.725Z,96717.22
2023-02-02T08:33:17.676Z,96730.84
2023-02-02T08:34:22.231Z,96723.94
2023-02-02T08:35:27.121Z,96730.78
2023-02-02T08:36:35.534Z,96733.34
2023-02-02T08:37:37.565Z,96735.06
2023-02-02T08:38:42.210Z,96741.94
2023-02-02T08:39:44.437Z,96747.03
2023-02-02T08:40:49.021Z,96747.81
2023-02-02T08:41:53.587Z,96751.25
2023-02-02T08:42:58.406Z,96750.50
2023-02-02T08:44:00.597Z,96730.81
2023-02-02T08:46:04.214Z,96745.38
2023-02-02T08:46:32.472Z,96750.38
2023-02-02T08:47:34.432Z,96750.41
2023-02-02T08:48:39.446Z,96763.22
2023-02-02T08:49:45.300Z,96755.53
2023-02-02T08:50:53.001Z,96763.25
2023-02-02T08:51:57.540Z,96764.16
2023-02-02T08:52:59.554Z,96753.84
2023-02-02T08:54:04.876Z,96755.59
2023-02-02T08:55:07.388Z,96757.31
2023-02-02T08:56:14.477Z,96763.28
2023-02-02T08:57:18.991Z,96748.72
2023-02-02T08:58:20.949Z,96743.66
2023-02-02T08:59:25.512Z,96753.91
2023-02-02T09:00:27.562Z,96745.34
2023-02-02T09:01:35.830Z,96753.78
2023-02-02T09:02:40.376Z,96746.13
2023-02-02T09:03:46.331Z,96755.50
2023-02-02T09:04:50.897Z,96756.38
2023-02-02T09:05:52.901Z,96755.50
2023-02-02T09:06:57.470Z,96748.66
2023-02-02T09:08:02.486Z,96757.19
2023-02-02T09:09:08.725Z,96747.75
2023-02-02T09:10:13.880Z,96756.34
2023-02-02T09:11:21.897Z,96762.31
2023-02-02T09:12:26.652Z,96754.56
2023-02-02T09:13:28.643Z,96751.13
2023-02-02T09:14:33.353Z,96753.59
2023-02-02T09:15:38.824Z,96751.81
2023-02-02T09:16:46.259Z,96743.31
2023-02-02T09:17:48.211Z,96748.50
2023-02-02T09:18:53.262Z,96750.19
2023-02-02T09:19:57.941Z,96743.31
2023-02-02T09:21:03.985Z,96761.25
2023-02-02T09:22:08.538Z,96750.97
2023-02-02T09:23:10.517Z,96761.22
2023-02-02T09:24:16.586Z,96738.09
2023-02-02T09:25:18.701Z,96756.00
2023-02-02T09:26:25.609Z,96755.13
2023-02-02T09:27:30.299Z,96756.78
2023-02-02T09:28:32.292Z,96748.16
2023-02-02T09:29:36.947Z,96760.16
2023-02-02T09:30:41.595Z,96766.09
2023-02-02T09:31:48.900Z,96759.16
2023-02-02T09:32:51.210Z,96767.72
2023-02-02T09:33:55.897Z,96748.84
2023-02-02T09:34:57.923Z,96756.56
2023-02-02T09:36:08.016Z,96768.53
2023-02-02T09:37:10.079Z,96760.78
2023-02-02T09:38:14.616Z,96756.44
2023-02-02T09:39:20.582Z,96758.97
2023-02-02T09:40:22.630Z,96761.63
2023-02-02T09:41:56.292Z,96772.75
2023-02-02T09:43:08.791Z,96771.84
2023-02-02T09:44:18.885Z,96763.31
2023-02-02T09:45:28.679Z,96771.00
2023-02-02T09:46:43.273Z,96764.16
2023-02-02T09:47:58.924Z,96780.44
2023-02-02T09:49:06.438Z,96794.00
2023-02-02T09:50:21.314Z,96780.34
2023-02-02T09:51:31.564Z,96776.09
2023-02-02T09:52:43.576Z,96786.31
2023-02-02T09:53:56.005Z,96787.19
2023-02-02T09:55:05.617Z,96785.47
2023-02-02T09:56:20.781Z,96790.56
2023-02-02T09:57:25.778Z,96783.75
2023-02-02T09:58:34.055Z,96794.84
2023-02-02T09:59:42.528Z,96814.44
2023-02-02T10:00:53.905Z,96802.44
2023-02-02T10:02:03.987Z,96775.06
2023-02-02T10:03:16.944Z,96798.16
2023-02-02T10:04:26.538Z,96809.31
2023-02-02T10:05:37.331Z,96787.88
2023-02-02T10:06:44.870Z,96788.72
2023-02-02T10:07:51.765Z,96784.47
2023-02-02T10:09:00.500Z,96780.19
2023-02-02T10:10:13.676Z,96779.28
2023-02-02T10:11:32.460Z,96774.19
2023-02-02T10:12:47.401Z,96775.81
2023-02-02T10:13:55.493Z,96788.66
2023-02-02T10:15:06.608Z,96763.06
2023-02-02T10:16:17.844Z,96779.28
2023-02-02T10:17:38.573Z,96777.56
2023-02-02T10:18:51.736Z,96781.84
2023-02-02T10:20:01.726Z,96798.94
2023-02-02T10:21:10.300Z,96789.50
2023-02-02T10:22:18.748Z,96798.16
2023-02-02T10:23:26.259Z,96792.13
2023-02-02T10:24:32.967Z,96781.84
2023-02-02T10:25:35.883Z,96775.88
2023-02-02T10:26:45.081Z,96854.59
2023-02-02T10:28:01.132Z,96790.38
2023-02-02T10:29:17.108Z,96783.50
2023-02-02T10:30:27.088Z,96778.41
2023-02-02T10:31:44.314Z,96781.81
2023-02-02T10:32:51.966Z,96786.06
2023-02-02T10:34:08.178Z,96801.50
2023-02-02T10:35:33.010Z,96782.63
2023-02-02T10:36:50.311Z,96772.31
2023-02-02T10:38:01.941Z,96794.59
2023-02-02T10:39:12.543Z,96783.47
2023-02-02T10:40:26.531Z,96770.63
2023-02-02T10:41:36.762Z,96792.06
2023-02-02T10:43:15.322Z,96779.22
2023-02-02T10:44:32.112Z,96783.47
2023-02-02T10:45:37.970Z,96774.81
2023-02-02T10:46:43.573Z,96779.03
2023-02-02T10:47:48.626Z,96784.16
2023-02-02T10:48:53.004Z,96802.19
2023-02-02T10:50:06.244Z,96774.72
2023-02-02T10:51:20.618Z,96775.56
2023-02-02T10:52:32.187Z,96781.47
2023-02-02T10:53:36.530Z,96777.19
2023-02-02T10:54:57.032Z,96782.25
2023-02-02T10:56:08.772Z,96783.16
2023-02-02T10:57:17.672Z,96783.22
2023-02-02T10:58:28.347Z,96771.31
2023-02-02T10:59:33.047Z,96772.09
2023-02-02T11:00:43.971Z,96773.03
2023-02-02T11:01:48.837Z,96783.25
2023-02-02T11:02:54.964Z,96789.19
2023-02-02T11:04:12.112Z,96784.94
2023-02-02T11:05:35.985Z,96790.91
2023-02-02T11:06:52.607Z,96787.47
2023-02-02T11:07:55.648Z,96810.53
2023-02-02T11:09:01.345Z,96807.22
2023-02-02T11:10:03.445Z,96795.94
2023-02-02T11:11:15.916Z,96794.31
2023-02-02T11:12:26.678Z,96796.81
2023-02-02T11:13:32.478Z,96793.44
2023-02-02T11:14:45.675Z,96793.38
2023-02-02T11:15:48.204Z,96784.84
2023-02-02T11:17:04.245Z,96807.22
2023-02-02T11:18:30.025Z,96793.47
2023-02-02T11:19:37.767Z,96764.44
2023-02-02T11:20:46.782Z,96785.00
2023-02-02T11:21:54.266Z,96800.41
2023-02-02T11:23:07.657Z,96790.91
2023-02-02T11:24:24.944Z,96778.22
2023-02-02T11:25:33.977Z,96812.41
2023-02-02T11:26:48.980Z,96809.84
2023-02-02T11:27:53.727Z,96797.00
2023-02-02T11:29:00.817Z,96814.97
2023-02-02T11:30:22.888Z,96786.72
2023-02-02T11:31:34.135Z,96790.13
2023-02-02T11:32:38.871Z,96814.06
2023-02-02T11:33:43.561Z,96803.75
2023-02-02T11:34:45.801Z,96777.34
2023-02-02T11:35:59.854Z,96782.53
2023-02-02T11:37:14.849Z,96798.00
2023-02-02T11:38:17.711Z,96796.31
2023-02-02T11:39:24.203Z,96795.47
2023-02-02T11:40:36.968Z,96797.09
2023-02-02T11:41:39.002Z,96798.00
2023-02-02T11:42:48.938Z,96794.53
2023-02-02T11:43:58.056Z,96797.22
2023-02-02T11:45:04.676Z,96798.91
2023-02-02T11:46:18.857Z,96797.22
2023-02-02T11:47:29.678Z,96795.47
2023-02-02T11:48:38.275Z,96792.06
2023-02-02T11:49:46.526Z,96804.88
2023-02-02T11:50:59.348Z,96798.00
2023-02-02T11:52:04.592Z,96787.78
2023-02-02T11:53:09.126Z,96787.72
2023-02-02T11:54:18.430Z,96798.88
2023-02-02T11:55:29.492Z,96805.69
2023-02-02T11:56:34.654Z,96785.25
2023-02-02T11:57:37.016Z,96793.75
2023-02-02T11:58:49.171Z,96807.44
2023-02-02T12:00:08.588Z,96803.13
2023-02-02T12:01:24.299Z,96792.97
2023-02-02T12:02:31.281Z,96807.47
2023-02-02T12:03:38.023Z,96796.41
2023-02-02T12:04:40.852Z,96795.56
2023-02-02T12:05:49.899Z,96793.03
2023-02-02T12:06:57.262Z,96815.28
2023-02-02T12:08:00.176Z,96781.91
2023-02-02T12:09:12.709Z,96790.44
2023-02-02T12:10:22.616Z,96779.34
2023-02-02T12:11:41.953Z,96787.00
2023-02-02T12:12:54.641Z,96796.41
2023-02-02T12:14:12.140Z,96792.13
2023-02-02T12:15:27.762Z,96775.88
2023-02-02T12:16:53.951Z,96781.03
2023-02-02T12:18:05.271Z,96789.63
2023-02-02T12:19:23.868Z,96788.66
2023-02-02T12:20:36.686Z,96791.34
2023-02-02T12:21:48.384Z,96790.50
2023-02-02T12:23:25.932Z,96799.88
2023-02-02T12:24:34.598Z,96800.72
2023-02-02T12:26:05.736Z,96797.31
2023-02-02T12:27:25.155Z,96795.63
2023-02-02T12:28:43.402Z,96795.66
2023-02-02T12:30:06.286Z,96801.66
2023-02-02T12:31:19.574Z,96789.75
2023-02-02T12:32:31.029Z,96802.56
2023-02-02T12:33:38.957Z,96788.88
2023-02-02T12:34:54.686Z,96792.34
2023-02-02T12:36:18.216Z,96792.31
2023-02-02T12:37:39.528Z,96787.97
2023-02-02T12:39:10.701Z,96788.78
2023-02-02T12:40:30.146Z,96800.81
2023-02-02T12:41:45.228Z,96797.38
2023-02-02T12:43:06.170Z,96800.81
2023-02-02T12:44:19.514Z,96794.91
2023-02-02T12:45:35.042Z,96785.44
2023-02-02T12:46:59.838Z,96790.56
2023-02-02T12:48:18.732Z,96790.50
2023-02-02T12:49:42.447Z,96791.44
2023-02-02T12:51:00.240Z,96800.81
2023-02-02T12:52:19.876Z,96799.97
2023-02-02T12:53:40.901Z,96798.25
2023-02-02T12:55:13.372Z,96791.34
2023-02-02T12:56:28.731Z,96790.56
2023-02-02T12:57:44.859Z,96788.81
2023-02-02T12:58:58.754Z,96795.66
2023-02-02T13:00:15.614Z,96797.47
2023-02-02T13:01:31.437Z,96776.00
2023-02-02T13:02:40.956Z,96811.91
2023-02-02T13:03:59.612Z,96808.44
2023-02-02T13:05:31.706Z,96798.22
2023-02-02T13:07:07.977Z,96807.69
2023-02-02T13:08:15.477Z,96794.88
2023-02-02T13:09:25.813Z,96792.44